sensor_id;sensor_type;location;lat;lon;timestamp;temperature;humidity
9425;DHT22;17139;52.140;11.636;2023-02-10T00:00:54;1.70;58.90
9425;DHT22;17139;52.140;11.636;2023-02-10T00:03:21;1.70;58.90
9425;DHT22;17139;52.140;11.636;2023-02-10T00:05:48;1.80;59.10
9425;DHT22;17139;52.140;11.636;2023-02-10T00:08:15;1.80;59.00
9425;DHT22;17139;52.140;11.636;2023-02-10T00:10:42;1.80;59.00
9425;DHT22;17139;52.140;11.636;2023-02-10T00:13:09;1.80;59.00
9425;DHT22;17139;52.140;11.636;2023-02-10T00:15:37;1.80;59.00
9425;DHT22;17139;52.140;11.636;2023-02-10T00:18:05;2.40;57.50
9425;DHT22;17139;52.140;11.636;2023-02-10T00:20:32;2.30;57.50
9425;DHT22;17139;52.140;11.636;2023-02-10T00:22:59;2.10;58.10
9425;DHT22;17139;52.140;11.636;2023-02-10T00:25:27;2.00;58.40
9425;DHT22;17139;52.140;11.636;2023-02-10T00:27:54;1.90;58.70
9425;DHT22;17139;52.140;11.636;2023-02-10T00:30:21;1.90;58.80
9425;DHT22;17139;52.140;11.636;2023-02-10T00:32:48;1.80;59.00
9425;DHT22;17139;52.140;11.636;2023-02-10T00:35:19;1.80;59.10
9425;DHT22;17139;52.140;11.636;2023-02-10T00:37:46;1.70;59.10
9425;DHT22;17139;52.140;11.636;2023-02-10T00:40:14;1.80;59.30
9425;DHT22;17139;52.140;11.636;2023-02-10T00:42:41;1.70;59.30
9425;DHT22;17139;52.140;11.636;2023-02-10T00:45:08;1.70;59.40
9425;DHT22;17139;52.140;11.636;2023-02-10T00:47:36;1.70;59.40
9425;DHT22;17139;52.140;11.636;2023-02-10T00:50:03;1.70;59.40
9425;DHT22;17139;52.140;11.636;2023-02-10T00:52:32;2.50;57.80
9425;DHT22;17139;52.140;11.636;2023-02-10T00:54:59;2.30;57.80
9425;DHT22;17139;52.140;11.636;2023-02-10T00:57:26;2.90;56.70
9425;DHT22;17139;52.140;11.636;2023-02-10T00:59:53;2.50;57.20
9425;DHT22;17139;52.140;11.636;2023-02-10T01:02:20;2.20;58.50
9425;DHT22;17139;52.140;11.636;2023-02-10T01:04:47;2.00;58.60
9425;DHT22;17139;52.140;11.636;2023-02-10T01:07:14;1.80;58.90
9425;DHT22;17139;52.140;11.636;2023-02-10T01:09:42;1.60;59.20
9425;DHT22;17139;52.140;11.636;2023-02-10T01:12:10;1.50;59.50
9425;DHT22;17139;52.140;11.636;2023-02-10T01:14:37;1.40;59.70
9425;DHT22;17139;52.140;11.636;2023-02-10T01:17:04;1.30;59.80
9425;DHT22;17139;52.140;11.636;2023-02-10T01:19:31;1.20;59.90
9425;DHT22;17139;52.140;11.636;2023-02-10T01:21:58;1.10;60.00
9425;DHT22;17139;52.140;11.636;2023-02-10T01:24:26;1.10;60.20
9425;DHT22;17139;52.140;11.636;2023-02-10T01:26:54;1.00;60.20
9425;DHT22;17139;52.140;11.636;2023-02-10T01:29:21;1.20;60.00
9425;DHT22;17139;52.140;11.636;2023-02-10T01:31:48;1.10;59.60
9425;DHT22;17139;52.140;11.636;2023-02-10T01:34:16;1.00;59.80
9425;DHT22;17139;52.140;11.636;2023-02-10T01:36:43;0.90;60.10
9425;DHT22;17139;52.140;11.636;2023-02-10T01:39:10;0.80;60.10
9425;DHT22;17139;52.140;11.636;2023-02-10T01:41:37;0.70;60.20
9425;DHT22;17139;52.140;11.636;2023-02-10T01:47:12;0.60;60.30
9425;DHT22;17139;52.140;11.636;2023-02-10T01:49:42;0.60;60.60
9425;DHT22;17139;52.140;11.636;2023-02-10T01:52:14;0.50;60.60
9425;DHT22;17139;52.140;11.636;2023-02-10T01:54:45;0.50;60.60
9425;DHT22;17139;52.140;11.636;2023-02-10T01:57:14;0.40;60.60
9425;DHT22;17139;52.140;11.636;2023-02-10T01:59:42;0.40;60.50
9425;DHT22;17139;52.140;11.636;2023-02-10T02:02:10;0.40;60.60
9425;DHT22;17139;52.140;11.636;2023-02-10T02:04:44;0.30;60.50
9425;DHT22;17139;52.140;11.636;2023-02-10T02:07:14;0.30;60.60
9425;DHT22;17139;52.140;11.636;2023-02-10T02:09:42;1.10;59.80
9425;DHT22;17139;52.140;11.636;2023-02-10T02:12:15;1.50;58.60
9425;DHT22;17139;52.140;11.636;2023-02-10T02:14:52;1.20;58.50
9425;DHT22;17139;52.140;11.636;2023-02-10T02:17:28;1.00;59.20
9425;DHT22;17139;52.140;11.636;2023-02-10T02:20:17;0.90;59.70
9425;DHT22;17139;52.140;11.636;2023-02-10T02:23:15;0.80;60.00
9425;DHT22;17139;52.140;11.636;2023-02-10T02:29:04;0.70;60.00
9425;DHT22;17139;52.140;11.636;2023-02-10T02:34:28;0.70;60.20
9425;DHT22;17139;52.140;11.636;2023-02-10T02:36:59;0.60;60.30
9425;DHT22;17139;52.140;11.636;2023-02-10T02:39:28;0.60;60.40
9425;DHT22;17139;52.140;11.636;2023-02-10T02:42:18;0.80;60.50
9425;DHT22;17139;52.140;11.636;2023-02-10T02:44:47;0.80;60.00
9425;DHT22;17139;52.140;11.636;2023-02-10T02:47:31;0.70;60.10
9425;DHT22;17139;52.140;11.636;2023-02-10T02:50:10;1.00;60.30
9425;DHT22;17139;52.140;11.636;2023-02-10T02:52:49;0.90;59.80
9425;DHT22;17139;52.140;11.636;2023-02-10T02:55:24;0.90;60.00
9425;DHT22;17139;52.140;11.636;2023-02-10T02:57:58;0.90;60.20
9425;DHT22;17139;52.140;11.636;2023-02-10T03:00:30;0.90;60.20
9425;DHT22;17139;52.140;11.636;2023-02-10T03:02:59;0.90;60.20
9425;DHT22;17139;52.140;11.636;2023-02-10T03:05:29;0.90;60.20
9425;DHT22;17139;52.140;11.636;2023-02-10T03:07:57;0.90;60.20
9425;DHT22;17139;52.140;11.636;2023-02-10T03:10:25;0.90;60.20
9425;DHT22;17139;52.140;11.636;2023-02-10T03:12:52;0.90;60.20
9425;DHT22;17139;52.140;11.636;2023-02-10T03:15:19;1.00;60.30
9425;DHT22;17139;52.140;11.636;2023-02-10T03:17:46;1.00;60.20
9425;DHT22;17139;52.140;11.636;2023-02-10T03:20:15;1.10;60.30
9425;DHT22;17139;52.140;11.636;2023-02-10T03:22:42;1.10;60.20
9425;DHT22;17139;52.140;11.636;2023-02-10T03:25:09;1.30;60.00
9425;DHT22;17139;52.140;11.636;2023-02-10T03:27:36;1.50;59.60
9425;DHT22;17139;52.140;11.636;2023-02-10T03:30:04;1.50;59.40
9425;DHT22;17139;52.140;11.636;2023-02-10T03:32:31;1.40;59.60
9425;DHT22;17139;52.140;11.636;2023-02-10T03:34:58;1.40;59.80
9425;DHT22;17139;52.140;11.636;2023-02-10T03:37:26;1.40;59.90
9425;DHT22;17139;52.140;11.636;2023-02-10T03:39:54;1.30;59.90
9425;DHT22;17139;52.140;11.636;2023-02-10T03:42:21;1.30;60.00
9425;DHT22;17139;52.140;11.636;2023-02-10T03:44:48;1.40;60.10
9425;DHT22;17139;52.140;11.636;2023-02-10T03:47:15;1.40;60.10
9425;DHT22;17139;52.140;11.636;2023-02-10T03:49:42;1.40;60.10
9425;DHT22;17139;52.140;11.636;2023-02-10T03:52:09;1.40;60.10
9425;DHT22;17139;52.140;11.636;2023-02-10T03:54:37;1.40;60.00
9425;DHT22;17139;52.140;11.636;2023-02-10T03:57:04;1.40;60.10
9425;DHT22;17139;52.140;11.636;2023-02-10T03:59:32;1.60;60.00
9425;DHT22;17139;52.140;11.636;2023-02-10T04:01:59;1.70;59.70
9425;DHT22;17139;52.140;11.636;2023-02-10T04:04:26;1.60;59.70
9425;DHT22;17139;52.140;11.636;2023-02-10T04:06:53;1.60;59.80
9425;DHT22;17139;52.140;11.636;2023-02-10T04:09:20;1.60;59.90
9425;DHT22;17139;52.140;11.636;2023-02-10T04:11:48;1.60;60.00
9425;DHT22;17139;52.140;11.636;2023-02-10T04:14:16;1.60;60.00
9425;DHT22;17139;52.140;11.636;2023-02-10T04:16:43;1.60;60.00
9425;DHT22;17139;52.140;11.636;2023-02-10T04:19:10;1.60;60.00
9425;DHT22;17139;52.140;11.636;2023-02-10T04:21:37;1.60;60.00
9425;DHT22;17139;52.140;11.636;2023-02-10T04:24:05;1.60;60.00
9425;DHT22;17139;52.140;11.636;2023-02-10T04:26:32;1.60;60.00
9425;DHT22;17139;52.140;11.636;2023-02-10T04:29:00;1.60;60.00
9425;DHT22;17139;52.140;11.636;2023-02-10T04:31:27;1.60;60.00
9425;DHT22;17139;52.140;11.636;2023-02-10T04:33:54;1.60;60.00
9425;DHT22;17139;52.140;11.636;2023-02-10T04:36:22;1.70;60.10
9425;DHT22;17139;52.140;11.636;2023-02-10T04:38:49;1.70;60.10
9425;DHT22;17139;52.140;11.636;2023-02-10T04:41:16;1.70;60.10
9425;DHT22;17139;52.140;11.636;2023-02-10T04:43:43;1.70;60.10
9425;DHT22;17139;52.140;11.636;2023-02-10T04:46:11;2.30;59.60
9425;DHT22;17139;52.140;11.636;2023-02-10T04:48:41;2.70;58.70
9425;DHT22;17139;52.140;11.636;2023-02-10T04:51:08;2.50;58.50
9425;DHT22;17139;52.140;11.636;2023-02-10T04:53:36;2.20;59.70
9425;DHT22;17139;52.140;11.636;2023-02-10T04:56:04;2.10;59.50
9425;DHT22;17139;52.140;11.636;2023-02-10T04:58:31;2.00;59.80
9425;DHT22;17139;52.140;11.636;2023-02-10T05:00:58;1.90;59.90
9425;DHT22;17139;52.140;11.636;2023-02-10T05:03:27;1.90;60.00
9425;DHT22;17139;52.140;11.636;2023-02-10T05:05:54;1.90;60.10
9425;DHT22;17139;52.140;11.636;2023-02-10T05:08:21;1.90;60.20
9425;DHT22;17139;52.140;11.636;2023-02-10T05:10:50;1.80;60.20
9425;DHT22;17139;52.140;11.636;2023-02-10T05:13:17;1.80;60.20
9425;DHT22;17139;52.140;11.636;2023-02-10T05:15:45;1.80;60.20
9425;DHT22;17139;52.140;11.636;2023-02-10T05:18:13;1.80;60.30
9425;DHT22;17139;52.140;11.636;2023-02-10T05:20:41;1.90;60.30
9425;DHT22;17139;52.140;11.636;2023-02-10T05:23:08;1.90;60.10
9425;DHT22;17139;52.140;11.636;2023-02-10T05:25:35;1.80;60.10
9425;DHT22;17139;52.140;11.636;2023-02-10T05:28:05;1.80;60.20
9425;DHT22;17139;52.140;11.636;2023-02-10T05:30:32;1.80;60.20
9425;DHT22;17139;52.140;11.636;2023-02-10T05:32:59;1.80;60.30
9425;DHT22;17139;52.140;11.636;2023-02-10T05:35:27;1.70;60.20
9425;DHT22;17139;52.140;11.636;2023-02-10T05:37:55;1.70;60.40
9425;DHT22;17139;52.140;11.636;2023-02-10T05:40:22;1.70;60.30
9425;DHT22;17139;52.140;11.636;2023-02-10T05:42:49;1.70;60.40
9425;DHT22;17139;52.140;11.636;2023-02-10T05:45:16;1.70;60.40
9425;DHT22;17139;52.140;11.636;2023-02-10T05:47:44;1.70;60.40
9425;DHT22;17139;52.140;11.636;2023-02-10T05:50:11;1.70;60.40
9425;DHT22;17139;52.140;11.636;2023-02-10T05:52:38;1.60;60.40
9425;DHT22;17139;52.140;11.636;2023-02-10T05:55:07;1.90;60.40
9425;DHT22;17139;52.140;11.636;2023-02-10T05:57:34;1.90;60.00
9425;DHT22;17139;52.140;11.636;2023-02-10T06:00:03;1.90;60.10
9425;DHT22;17139;52.140;11.636;2023-02-10T06:02:30;1.80;60.30
9425;DHT22;17139;52.140;11.636;2023-02-10T06:04:57;1.70;60.30
9425;DHT22;17139;52.140;11.636;2023-02-10T06:07:24;1.70;60.40
9425;DHT22;17139;52.140;11.636;2023-02-10T06:09:51;1.70;60.40
9425;DHT22;17139;52.140;11.636;2023-02-10T06:12:19;1.70;60.50
9425;DHT22;17139;52.140;11.636;2023-02-10T06:14:47;1.70;60.60
9425;DHT22;17139;52.140;11.636;2023-02-10T06:17:14;1.60;60.50
9425;DHT22;17139;52.140;11.636;2023-02-10T06:19:41;1.70;60.60
9425;DHT22;17139;52.140;11.636;2023-02-10T06:22:09;1.70;60.60
9425;DHT22;17139;52.140;11.636;2023-02-10T06:24:37;1.60;60.50
9425;DHT22;17139;52.140;11.636;2023-02-10T06:27:04;1.60;60.60
9425;DHT22;17139;52.140;11.636;2023-02-10T06:29:33;1.60;60.60
9425;DHT22;17139;52.140;11.636;2023-02-10T06:32:00;1.60;60.60
9425;DHT22;17139;52.140;11.636;2023-02-10T06:34:27;1.60;60.60
9425;DHT22;17139;52.140;11.636;2023-02-10T06:36:54;1.80;60.70
9425;DHT22;17139;52.140;11.636;2023-02-10T06:39:21;1.90;60.30
9425;DHT22;17139;52.140;11.636;2023-02-10T06:41:48;1.80;60.10
9425;DHT22;17139;52.140;11.636;2023-02-10T06:44:15;1.80;60.30
9425;DHT22;17139;52.140;11.636;2023-02-10T06:46:43;1.70;60.50
9425;DHT22;17139;52.140;11.636;2023-02-10T06:49:11;1.70;60.60
9425;DHT22;17139;52.140;11.636;2023-02-10T06:51:38;1.60;60.60
9425;DHT22;17139;52.140;11.636;2023-02-10T06:54:05;1.60;60.70
9425;DHT22;17139;52.140;11.636;2023-02-10T06:56:32;1.60;60.70
9425;DHT22;17139;52.140;11.636;2023-02-10T06:58:59;1.60;60.80
9425;DHT22;17139;52.140;11.636;2023-02-10T07:01:26;1.60;60.80
9425;DHT22;17139;52.140;11.636;2023-02-10T07:03:54;1.60;61.50
9425;DHT22;17139;52.140;11.636;2023-02-10T07:06:21;1.60;60.80
9425;DHT22;17139;52.140;11.636;2023-02-10T07:08:49;2.20;60.10
9425;DHT22;17139;52.140;11.636;2023-02-10T07:11:16;2.10;59.60
9425;DHT22;17139;52.140;11.636;2023-02-10T07:13:44;2.00;59.90
9425;DHT22;17139;52.140;11.636;2023-02-10T07:16:11;1.90;60.20
9425;DHT22;17139;52.140;11.636;2023-02-10T07:18:40;1.80;60.40
9425;DHT22;17139;52.140;11.636;2023-02-10T07:21:09;1.70;60.50
9425;DHT22;17139;52.140;11.636;2023-02-10T07:23:36;1.70;60.70
9425;DHT22;17139;52.140;11.636;2023-02-10T07:26:04;1.70;60.70
9425;DHT22;17139;52.140;11.636;2023-02-10T07:28:31;1.70;60.80
9425;DHT22;17139;52.140;11.636;2023-02-10T07:30:58;1.70;60.80
9425;DHT22;17139;52.140;11.636;2023-02-10T07:33:25;1.70;60.80
9425;DHT22;17139;52.140;11.636;2023-02-10T07:35:54;1.70;60.80
9425;DHT22;17139;52.140;11.636;2023-02-10T07:38:22;1.80;60.90
9425;DHT22;17139;52.140;11.636;2023-02-10T07:40:49;1.80;60.90
9425;DHT22;17139;52.140;11.636;2023-02-10T07:43:16;1.80;60.80
9425;DHT22;17139;52.140;11.636;2023-02-10T07:45:43;2.30;60.40
9425;DHT22;17139;52.140;11.636;2023-02-10T07:48:10;2.20;59.80
9425;DHT22;17139;52.140;11.636;2023-02-10T07:50:37;2.10;60.10
9425;DHT22;17139;52.140;11.636;2023-02-10T07:53:04;2.00;60.40
9425;DHT22;17139;52.140;11.636;2023-02-10T07:55:33;2.00;60.60
9425;DHT22;17139;52.140;11.636;2023-02-10T07:58:00;2.10;60.80
9425;DHT22;17139;52.140;11.636;2023-02-10T08:00:27;2.10;60.70
9425;DHT22;17139;52.140;11.636;2023-02-10T08:02:54;2.10;60.60
9425;DHT22;17139;52.140;11.636;2023-02-10T08:05:21;2.20;60.60
9425;DHT22;17139;52.140;11.636;2023-02-10T08:07:49;2.20;60.70
9425;DHT22;17139;52.140;11.636;2023-02-10T08:10:16;2.20;60.50
9425;DHT22;17139;52.140;11.636;2023-02-10T08:12:44;2.20;60.50
9425;DHT22;17139;52.140;11.636;2023-02-10T08:15:12;2.30;60.60
9425;DHT22;17139;52.140;11.636;2023-02-10T08:17:42;2.60;60.40
9425;DHT22;17139;52.140;11.636;2023-02-10T08:20:10;2.60;60.00
9425;DHT22;17139;52.140;11.636;2023-02-10T08:22:37;2.60;60.30
9425;DHT22;17139;52.140;11.636;2023-02-10T08:25:05;2.70;60.20
9425;DHT22;17139;52.140;11.636;2023-02-10T08:27:35;2.80;60.00
9425;DHT22;17139;52.140;11.636;2023-02-10T08:30:04;2.70;60.10
9425;DHT22;17139;52.140;11.636;2023-02-10T08:32:31;3.20;59.50
9425;DHT22;17139;52.140;11.636;2023-02-10T08:34:58;3.10;59.30
9425;DHT22;17139;52.140;11.636;2023-02-10T08:37:25;2.90;59.60
9425;DHT22;17139;52.140;11.636;2023-02-10T08:39:53;2.90;60.00
9425;DHT22;17139;52.140;11.636;2023-02-10T08:42:20;2.80;60.30
9425;DHT22;17139;52.140;11.636;2023-02-10T08:44:47;2.80;60.50
9425;DHT22;17139;52.140;11.636;2023-02-10T08:47:15;2.80;60.50
9425;DHT22;17139;52.140;11.636;2023-02-10T08:49:43;2.90;60.70
9425;DHT22;17139;52.140;11.636;2023-02-10T08:52:10;2.90;60.60
9425;DHT22;17139;52.140;11.636;2023-02-10T08:54:37;3.60;59.40
9425;DHT22;17139;52.140;11.636;2023-02-10T08:57:04;4.30;58.00
9425;DHT22;17139;52.140;11.636;2023-02-10T08:59:32;3.90;58.30
9425;DHT22;17139;52.140;11.636;2023-02-10T09:01:59;3.70;58.90
9425;DHT22;17139;52.140;11.636;2023-02-10T09:04:27;3.60;59.50
9425;DHT22;17139;52.140;11.636;2023-02-10T09:06:54;3.50;59.80
9425;DHT22;17139;52.140;11.636;2023-02-10T09:09:22;3.50;60.10
9425;DHT22;17139;52.140;11.636;2023-02-10T09:11:52;3.50;60.80
9425;DHT22;17139;52.140;11.636;2023-02-10T09:14:20;3.40;60.10
9425;DHT22;17139;52.140;11.636;2023-02-10T09:16:47;3.40;60.20
9425;DHT22;17139;52.140;11.636;2023-02-10T09:19:16;3.40;60.30
9425;DHT22;17139;52.140;11.636;2023-02-10T09:21:44;4.00;59.00
9425;DHT22;17139;52.140;11.636;2023-02-10T09:24:11;3.90;59.00
9425;DHT22;17139;52.140;11.636;2023-02-10T09:26:38;3.80;59.50
9425;DHT22;17139;52.140;11.636;2023-02-10T09:29:05;3.60;59.50
9425;DHT22;17139;52.140;11.636;2023-02-10T09:31:33;3.50;60.70
9425;DHT22;17139;52.140;11.636;2023-02-10T09:34:00;3.40;60.20
9425;DHT22;17139;52.140;11.636;2023-02-10T09:36:27;3.40;60.60
9425;DHT22;17139;52.140;11.636;2023-02-10T09:38:56;3.40;60.50
9425;DHT22;17139;52.140;11.636;2023-02-10T09:41:36;3.40;60.60
9425;DHT22;17139;52.140;11.636;2023-02-10T09:44:11;3.40;60.70
9425;DHT22;17139;52.140;11.636;2023-02-10T09:47:01;3.30;60.70
9425;DHT22;17139;52.140;11.636;2023-02-10T09:49:46;3.30;60.70
9425;DHT22;17139;52.140;11.636;2023-02-10T09:52:24;3.30;60.90
9425;DHT22;17139;52.140;11.636;2023-02-10T09:54:54;3.40;61.00
9425;DHT22;17139;52.140;11.636;2023-02-10T09:57:25;4.00;60.20
9425;DHT22;17139;52.140;11.636;2023-02-10T09:59:55;4.00;59.80
9425;DHT22;17139;52.140;11.636;2023-02-10T10:04:55;4.00;59.70
9425;DHT22;17139;52.140;11.636;2023-02-10T10:07:27;4.00;60.20
9425;DHT22;17139;52.140;11.636;2023-02-10T10:10:02;4.10;61.00
9425;DHT22;17139;52.140;11.636;2023-02-10T10:12:30;4.00;60.40
9425;DHT22;17139;52.140;11.636;2023-02-10T10:14:57;3.90;60.50
9425;DHT22;17139;52.140;11.636;2023-02-10T10:17:47;3.90;60.50
9425;DHT22;17139;52.140;11.636;2023-02-10T10:20:32;3.90;60.50
9425;DHT22;17139;52.140;11.636;2023-02-10T10:23:16;3.90;60.80
9425;DHT22;17139;52.140;11.636;2023-02-10T10:26:03;3.80;60.90
9425;DHT22;17139;52.140;11.636;2023-02-10T10:28:53;3.80;61.00
9425;DHT22;17139;52.140;11.636;2023-02-10T10:31:27;4.40;60.00
9425;DHT22;17139;52.140;11.636;2023-02-10T10:34:01;4.10;59.90
9425;DHT22;17139;52.140;11.636;2023-02-10T10:36:33;3.90;60.30
9425;DHT22;17139;52.140;11.636;2023-02-10T10:39:06;4.70;59.10
9425;DHT22;17139;52.140;11.636;2023-02-10T10:41:38;4.40;59.30
9425;DHT22;17139;52.140;11.636;2023-02-10T10:44:10;4.10;59.90
9425;DHT22;17139;52.140;11.636;2023-02-10T10:46:42;4.00;60.50
9425;DHT22;17139;52.140;11.636;2023-02-10T10:49:10;3.90;60.60
9425;DHT22;17139;52.140;11.636;2023-02-10T10:51:37;3.80;60.90
9425;DHT22;17139;52.140;11.636;2023-02-10T10:54:06;3.80;61.00
9425;DHT22;17139;52.140;11.636;2023-02-10T10:56:37;3.80;61.00
9425;DHT22;17139;52.140;11.636;2023-02-10T10:59:13;3.80;61.10
9425;DHT22;17139;52.140;11.636;2023-02-10T11:01:42;3.80;61.10
9425;DHT22;17139;52.140;11.636;2023-02-10T11:04:12;3.80;61.20
9425;DHT22;17139;52.140;11.636;2023-02-10T11:06:42;3.90;61.20
9425;DHT22;17139;52.140;11.636;2023-02-10T11:09:22;4.30;60.70
9425;DHT22;17139;52.140;11.636;2023-02-10T11:11:53;4.30;60.30
9425;DHT22;17139;52.140;11.636;2023-02-10T11:14:24;4.20;60.60
9425;DHT22;17139;52.140;11.636;2023-02-10T11:16:54;4.10;60.70
9425;DHT22;17139;52.140;11.636;2023-02-10T11:19:29;4.10;61.10
9425;DHT22;17139;52.140;11.636;2023-02-10T11:21:56;4.00;61.10
9425;DHT22;17139;52.140;11.636;2023-02-10T11:24:26;4.10;61.30
9425;DHT22;17139;52.140;11.636;2023-02-10T11:26:57;4.10;61.30
9425;DHT22;17139;52.140;11.636;2023-02-10T11:29:28;4.20;61.30
9425;DHT22;17139;52.140;11.636;2023-02-10T11:31:56;4.20;61.30
9425;DHT22;17139;52.140;11.636;2023-02-10T11:34:28;4.20;61.30
9425;DHT22;17139;52.140;11.636;2023-02-10T11:36:58;4.30;61.30
9425;DHT22;17139;52.140;11.636;2023-02-10T11:39:30;4.40;61.40
9425;DHT22;17139;52.140;11.636;2023-02-10T11:42:07;4.80;61.00
9425;DHT22;17139;52.140;11.636;2023-02-10T11:44:36;5.50;59.00
9425;DHT22;17139;52.140;11.636;2023-02-10T11:47:13;5.30;59.40
9425;DHT22;17139;52.140;11.636;2023-02-10T11:49:43;5.90;58.60
9425;DHT22;17139;52.140;11.636;2023-02-10T11:52:10;5.50;59.00
9425;DHT22;17139;52.140;11.636;2023-02-10T11:54:38;5.90;58.70
9425;DHT22;17139;52.140;11.636;2023-02-10T11:57:21;5.60;59.10
9425;DHT22;17139;52.140;11.636;2023-02-10T12:00:15;5.50;59.80
9425;DHT22;17139;52.140;11.636;2023-02-10T12:03:03;5.40;60.40
9425;DHT22;17139;52.140;11.636;2023-02-10T12:05:36;5.50;60.60
9425;DHT22;17139;52.140;11.636;2023-02-10T12:08:14;5.50;60.60
9425;DHT22;17139;52.140;11.636;2023-02-10T12:10:46;6.00;59.70
9425;DHT22;17139;52.140;11.636;2023-02-10T12:13:22;5.90;59.70
9425;DHT22;17139;52.140;11.636;2023-02-10T12:16:01;5.90;60.20
9425;DHT22;17139;52.140;11.636;2023-02-10T12:18:58;5.80;60.40
9425;DHT22;17139;52.140;11.636;2023-02-10T12:21:48;5.90;60.50
9425;DHT22;17139;52.140;11.636;2023-02-10T12:24:37;6.00;60.70
9425;DHT22;17139;52.140;11.636;2023-02-10T12:27:11;6.00;60.70
9425;DHT22;17139;52.140;11.636;2023-02-10T12:29:52;6.00;60.80
9425;DHT22;17139;52.140;11.636;2023-02-10T12:32:29;6.00;60.80
9425;DHT22;17139;52.140;11.636;2023-02-10T12:35:25;6.00;60.80
9425;DHT22;17139;52.140;11.636;2023-02-10T12:38:03;6.10;60.90
9425;DHT22;17139;52.140;11.636;2023-02-10T12:40:49;6.00;60.80
9425;DHT22;17139;52.140;11.636;2023-02-10T12:43:32;6.80;58.00
9425;DHT22;17139;52.140;11.636;2023-02-10T12:46:12;6.60;58.40
9425;DHT22;17139;52.140;11.636;2023-02-10T12:48:49;6.50;58.70
9425;DHT22;17139;52.140;11.636;2023-02-10T12:51:27;6.40;59.10
9425;DHT22;17139;52.140;11.636;2023-02-10T12:54:00;6.30;60.40
9425;DHT22;17139;52.140;11.636;2023-02-10T12:56:34;6.20;60.60
9425;DHT22;17139;52.140;11.636;2023-02-10T12:59:08;6.20;60.70
9425;DHT22;17139;52.140;11.636;2023-02-10T13:01:42;6.30;60.70
9425;DHT22;17139;52.140;11.636;2023-02-10T13:04:15;6.40;59.40
9425;DHT22;17139;52.140;11.636;2023-02-10T13:06:47;6.20;60.20
9425;DHT22;17139;52.140;11.636;2023-02-10T13:09:23;6.10;60.50
9425;DHT22;17139;52.140;11.636;2023-02-10T13:12:03;6.00;60.80
9425;DHT22;17139;52.140;11.636;2023-02-10T13:14:33;5.90;61.10
9425;DHT22;17139;52.140;11.636;2023-02-10T13:17:02;5.80;61.20
9425;DHT22;17139;52.140;11.636;2023-02-10T13:19:36;6.50;58.40
9425;DHT22;17139;52.140;11.636;2023-02-10T13:22:10;6.10;59.50
9425;DHT22;17139;52.140;11.636;2023-02-10T13:24:43;5.90;60.20
9425;DHT22;17139;52.140;11.636;2023-02-10T13:27:24;5.70;60.60
9425;DHT22;17139;52.140;11.636;2023-02-10T13:30:02;5.70;61.10
9425;DHT22;17139;52.140;11.636;2023-02-10T13:32:47;5.60;61.10
9425;DHT22;17139;52.140;11.636;2023-02-10T13:35:21;5.50;61.20
9425;DHT22;17139;52.140;11.636;2023-02-10T13:37:51;5.40;61.30
9425;DHT22;17139;52.140;11.636;2023-02-10T13:40:20;5.40;61.30
9425;DHT22;17139;52.140;11.636;2023-02-10T13:42:50;5.40;61.40
9425;DHT22;17139;52.140;11.636;2023-02-10T13:45:20;6.10;59.50
9425;DHT22;17139;52.140;11.636;2023-02-10T13:47:51;5.90;59.80
9425;DHT22;17139;52.140;11.636;2023-02-10T13:50:28;5.80;60.40
9425;DHT22;17139;52.140;11.636;2023-02-10T13:52:58;5.70;61.20
9425;DHT22;17139;52.140;11.636;2023-02-10T13:55:38;5.60;60.90
9425;DHT22;17139;52.140;11.636;2023-02-10T13:58:23;5.60;61.10
9425;DHT22;17139;52.140;11.636;2023-02-10T14:00:53;5.50;61.00
9425;DHT22;17139;52.140;11.636;2023-02-10T14:03:23;5.50;61.20
9425;DHT22;17139;52.140;11.636;2023-02-10T14:05:54;5.50;61.20
9425;DHT22;17139;52.140;11.636;2023-02-10T14:08:28;5.40;61.20
9425;DHT22;17139;52.140;11.636;2023-02-10T14:11:01;5.40;61.30
9425;DHT22;17139;52.140;11.636;2023-02-10T14:13:30;5.40;61.50
9425;DHT22;17139;52.140;11.636;2023-02-10T14:16:00;5.40;61.50
9425;DHT22;17139;52.140;11.636;2023-02-10T14:18:30;5.30;61.50
9425;DHT22;17139;52.140;11.636;2023-02-10T14:21:00;5.80;60.00
9425;DHT22;17139;52.140;11.636;2023-02-10T14:23:30;6.20;59.20
9425;DHT22;17139;52.140;11.636;2023-02-10T14:25:59;5.90;59.50
9425;DHT22;17139;52.140;11.636;2023-02-10T14:28:29;5.70;60.10
9425;DHT22;17139;52.140;11.636;2023-02-10T14:31:01;5.50;60.50
9425;DHT22;17139;52.140;11.636;2023-02-10T14:33:32;5.40;60.90
9425;DHT22;17139;52.140;11.636;2023-02-10T14:36:02;5.30;61.00
9425;DHT22;17139;52.140;11.636;2023-02-10T14:38:31;5.30;61.20
9425;DHT22;17139;52.140;11.636;2023-02-10T14:41:00;5.20;61.30
9425;DHT22;17139;52.140;11.636;2023-02-10T14:43:30;5.20;61.40
9425;DHT22;17139;52.140;11.636;2023-02-10T14:45:59;5.20;61.60
9425;DHT22;17139;52.140;11.636;2023-02-10T14:48:27;5.10;61.50
9425;DHT22;17139;52.140;11.636;2023-02-10T14:51:02;5.70;60.00
9425;DHT22;17139;52.140;11.636;2023-02-10T14:53:33;5.50;60.10
9425;DHT22;17139;52.140;11.636;2023-02-10T14:56:03;5.30;60.60
9425;DHT22;17139;52.140;11.636;2023-02-10T14:58:31;5.20;61.00
9425;DHT22;17139;52.140;11.636;2023-02-10T15:01:02;5.10;61.10
9425;DHT22;17139;52.140;11.636;2023-02-10T15:03:31;5.00;61.40
9425;DHT22;17139;52.140;11.636;2023-02-10T15:06:01;4.90;61.40
9425;DHT22;17139;52.140;11.636;2023-02-10T15:08:39;4.90;61.50
9425;DHT22;17139;52.140;11.636;2023-02-10T15:11:14;4.90;61.60
9425;DHT22;17139;52.140;11.636;2023-02-10T15:14:02;4.80;61.60
9425;DHT22;17139;52.140;11.636;2023-02-10T15:16:31;4.70;61.70
9425;DHT22;17139;52.140;11.636;2023-02-10T15:18:58;4.70;61.70
9425;DHT22;17139;52.140;11.636;2023-02-10T15:21:34;4.70;61.80
9425;DHT22;17139;52.140;11.636;2023-02-10T15:24:01;5.00;61.30
9425;DHT22;17139;52.140;11.636;2023-02-10T15:26:31;5.20;60.60
9425;DHT22;17139;52.140;11.636;2023-02-10T15:29:04;5.00;60.50
9425;DHT22;17139;52.140;11.636;2023-02-10T15:31:31;4.80;60.90
9425;DHT22;17139;52.140;11.636;2023-02-10T15:34:01;4.70;61.30
9425;DHT22;17139;52.140;11.636;2023-02-10T15:36:30;4.60;61.60
9425;DHT22;17139;52.140;11.636;2023-02-10T15:39:03;4.40;61.60
9425;DHT22;17139;52.140;11.636;2023-02-10T15:41:35;4.40;61.80
9425;DHT22;17139;52.140;11.636;2023-02-10T15:44:04;4.30;61.90
9425;DHT22;17139;52.140;11.636;2023-02-10T15:46:32;4.30;62.10
9425;DHT22;17139;52.140;11.636;2023-02-10T15:49:09;4.20;62.10
9425;DHT22;17139;52.140;11.636;2023-02-10T15:51:41;4.20;62.10
9425;DHT22;17139;52.140;11.636;2023-02-10T15:54:14;4.10;62.20
9425;DHT22;17139;52.140;11.636;2023-02-10T15:56:42;4.10;62.30
9425;DHT22;17139;52.140;11.636;2023-02-10T15:59:14;4.30;61.90
9425;DHT22;17139;52.140;11.636;2023-02-10T16:01:42;4.20;61.50
9425;DHT22;17139;52.140;11.636;2023-02-10T16:04:09;4.10;61.70
9425;DHT22;17139;52.140;11.636;2023-02-10T16:06:37;4.00;62.00
9425;DHT22;17139;52.140;11.636;2023-02-10T16:09:05;3.90;62.10
9425;DHT22;17139;52.140;11.636;2023-02-10T16:11:33;3.90;62.20
9425;DHT22;17139;52.140;11.636;2023-02-10T16:14:00;3.80;62.20
9425;DHT22;17139;52.140;11.636;2023-02-10T16:16:27;4.50;60.30